Aérodrome :
LOGIN :

S'inscrire | Disclaimer

   EN    FR    IT 

 










Légende :    VFR   VFR Marginal   IFR   IFR Intensif   IFR Très Intensif
Visi : 
Plafond : 
>= 8 km
>= 3000ft
5 à 8 km
1000 à 3000 ft
1500m à 5 km
500 à 1000 ft
800 à 1500m
200 à 500 ft
< 800m
< 200 ft
Symboles :   Orages  Brouillard  Fortes neiges  Fortes précipitations  Vent > 20 kt
SIGMETs :   Divers  Orages  Givrage  Turbulence  Onde Orograph.  Cendres Volcan.






- Altitude de l'aérodrome : 1260 ft
- Code IATA : LDE


LFBT - Tarbes / Ossun

DERNIER METAR :
  • 220500Z AUTO 21005KT 9999 FEW022 BKN092 15/13 Q1016 TEMPO BKN008

METARs EXPIRÉS :
  • 220430Z AUTO 22004KT 9999 FEW043 BKN090 BKN160 15/14 Q1016 TEMPO BKN008
  • 220400Z AUTO 24005KT 9999 FEW014 OVC088 16/14 Q1016 TEMPO BKN008
  • 220330Z AUTO 23004KT 9999 BKN012 OVC038 16/14 Q1016 TEMPO BKN008
  • 220300Z AUTO 23007KT 9999 BKN009 OVC035 16/14 Q1017 NOSIG
  • 220230Z AUTO 23005KT 9999 OVC008 16/15 Q1017 NOSIG

TAF TAF LFBT
Valide du 22 à 00h jusqu'au 23 à 00h UTC


212300Z 2200/2224 27004KT 9999 FEW010 BKN020 FEW040CB
BECMG 2200/2202 SCT010 BKN030
PROB40 2200/2208 BKN008
TEMPO 2211/2215 SCT020TCU



MET'MAP, la Météo Aéronautique d'un coup d'oeil ! - Copyright ORBIFLY Décembre 2007 - Disclaimer

ORBIFLY MET'MAP TEAM :

Programmation & Développement : Alexandra Zaïnal
Sur une idée originale de : Baudouin d'Aumeries
Assistance à la programmation : Marc-Olivier Méhu
Soutien technique & logistique : Manuel Goepfert

Contact : metmap@orbifly.com




SOURCES & CREDITS :

   NOAA